createdAt,value
2018-03-14T00:01:30.458Z,60.47
2018-03-14T00:03:59.282Z,60.40
2018-03-14T00:06:28.103Z,59.57
2018-03-14T00:08:56.926Z,59.21
2018-03-14T00:11:25.749Z,59.59
2018-03-14T00:13:54.573Z,60.72
2018-03-14T00:16:23.199Z,59.75
2018-03-14T00:18:51.933Z,59.78
2018-03-14T00:21:20.635Z,59.25
2018-03-14T00:23:49.462Z,59.46
2018-03-14T00:26:18.197Z,59.06
2018-03-14T00:28:46.922Z,59.15
2018-03-14T00:31:15.723Z,57.04
2018-03-14T00:33:44.545Z,57.70
2018-03-14T00:36:13.280Z,58.81
2018-03-14T00:38:41.878Z,59.18
2018-03-14T00:41:10.554Z,59.17
2018-03-14T00:43:40.235Z,58.92
2018-03-14T00:46:09.059Z,57.92
2018-03-14T00:48:37.794Z,58.11
2018-03-14T00:51:06.502Z,58.70
2018-03-14T00:53:35.224Z,59.33
2018-03-14T00:56:03.961Z,59.66
2018-03-14T00:58:32.640Z,59.11
2018-03-14T01:01:01.392Z,60.46
2018-03-14T01:03:30.211Z,61.50
2018-03-14T01:05:58.933Z,60.66
2018-03-14T01:08:27.531Z,60.07
2018-03-14T01:10:56.178Z,59.79
2018-03-14T01:13:24.802Z,59.65
2018-03-14T01:15:53.622Z,59.38
2018-03-14T01:18:22.342Z,59.29
2018-03-14T01:20:51.164Z,59.34
2018-03-14T01:23:19.901Z,59.21
2018-03-14T01:25:48.708Z,59.00
2018-03-14T01:28:17.549Z,58.44
2018-03-14T01:30:46.354Z,58.59
2018-03-14T01:33:15.227Z,59.00
2018-03-14T01:35:43.922Z,59.48
2018-03-14T01:38:12.539Z,59.66
2018-03-14T01:40:41.259Z,59.56
2018-03-14T01:43:09.895Z,59.55
2018-03-14T01:45:38.547Z,59.68
2018-03-14T01:48:07.940Z,59.61
2018-03-14T01:50:36.631Z,59.65
2018-03-14T01:53:17.092Z,59.79
2018-03-14T01:55:45.814Z,60.11
2018-03-14T01:58:14.437Z,60.27
2018-03-14T02:00:43.259Z,60.43
2018-03-14T02:03:11.996Z,60.27
2018-03-14T02:05:40.746Z,60.24
2018-03-14T02:08:09.443Z,60.13
2018-03-14T02:10:38.346Z,60.08
2018-03-14T02:13:06.981Z,60.10
2018-03-14T02:15:35.893Z,59.96
2018-03-14T02:18:04.714Z,60.02
2018-03-14T02:20:33.403Z,59.93
2018-03-14T02:23:02.156Z,59.77
2018-03-14T02:25:30.861Z,59.71
2018-03-14T02:27:59.619Z,59.98
2018-03-14T02:30:28.242Z,59.63
2018-03-14T02:32:57.014Z,60.03
2018-03-14T02:35:25.679Z,59.60
2018-03-14T02:37:54.357Z,59.43
2018-03-14T02:40:23.817Z,59.80
2018-03-14T02:42:52.553Z,59.80
2018-03-14T02:45:21.168Z,59.78
2018-03-14T02:47:49.781Z,59.63
2018-03-14T02:50:18.402Z,59.74
2018-03-14T02:52:47.221Z,59.44
2018-03-14T02:55:15.831Z,59.23
2018-03-14T02:57:44.463Z,58.89
2018-03-14T03:00:13.195Z,58.72
2018-03-14T03:02:41.933Z,58.59
2018-03-14T03:05:10.530Z,58.31
2018-03-14T03:07:39.107Z,58.19
2018-03-14T03:10:07.772Z,59.99
2018-03-14T03:12:36.493Z,59.36
2018-03-14T03:15:05.316Z,59.08
2018-03-14T03:17:33.945Z,59.33
2018-03-14T03:20:02.538Z,59.00
2018-03-14T03:22:31.188Z,58.95
2018-03-14T03:25:00.004Z,58.81
2018-03-14T03:27:28.571Z,58.67
2018-03-14T03:29:57.347Z,58.87
2018-03-14T03:32:26.068Z,58.83
2018-03-14T03:34:54.793Z,58.93
2018-03-14T03:37:23.398Z,58.88
2018-03-14T03:39:52.749Z,58.75
2018-03-14T03:42:21.530Z,58.60
2018-03-14T03:44:50.190Z,58.74
2018-03-14T03:47:19.025Z,58.54
2018-03-14T03:49:47.624Z,58.62
2018-03-14T03:52:16.175Z,58.79
2018-03-14T03:54:44.946Z,59.01
2018-03-14T03:57:13.688Z,59.31
2018-03-14T03:59:42.412Z,58.94
2018-03-14T04:02:11.056Z,59.04
2018-03-14T04:04:39.753Z,58.75
2018-03-14T04:07:08.475Z,59.14
2018-03-14T04:09:37.140Z,59.35
2018-03-14T04:12:05.822Z,59.59
2018-03-14T04:14:34.584Z,59.36
2018-03-14T04:17:03.364Z,59.71
2018-03-14T04:19:32.100Z,60.17
2018-03-14T04:22:00.654Z,60.19
2018-03-14T04:24:29.529Z,60.44
2018-03-14T04:26:58.127Z,61.14
2018-03-14T04:29:26.771Z,60.60
2018-03-14T04:31:55.361Z,60.72
2018-03-14T04:34:23.964Z,60.72
2018-03-14T04:36:52.739Z,61.30
2018-03-14T04:39:21.304Z,61.88
2018-03-14T04:41:51.417Z,61.70
2018-03-14T04:44:20.209Z,61.55
2018-03-14T04:46:48.774Z,61.54
2018-03-14T04:49:17.552Z,62.40
2018-03-14T04:51:46.216Z,62.27
2018-03-14T04:54:14.912Z,62.28
2018-03-14T04:56:43.504Z,62.52
2018-03-14T04:59:12.125Z,62.87
2018-03-14T05:01:40.781Z,62.71
2018-03-14T05:04:09.580Z,62.76
2018-03-14T05:06:38.157Z,62.13
2018-03-14T05:09:06.825Z,62.24
2018-03-14T05:11:35.387Z,62.14
2018-03-14T05:14:03.991Z,62.51
2018-03-14T05:16:32.666Z,62.55
2018-03-14T05:19:01.238Z,63.41
2018-03-14T05:21:29.857Z,63.37
2018-03-14T05:23:58.465Z,62.93
2018-03-14T05:26:27.274Z,63.22
2018-03-14T05:28:55.908Z,64.20
2018-03-14T05:31:24.615Z,64.40
2018-03-14T05:33:54.080Z,64.25
2018-03-14T05:36:22.662Z,63.68
2018-03-14T05:38:51.296Z,63.02
2018-03-14T05:41:20.021Z,62.22
2018-03-14T05:43:48.598Z,62.91
2018-03-14T05:46:17.204Z,63.77
2018-03-14T05:48:45.770Z,63.33
2018-03-14T05:51:14.350Z,64.46
2018-03-14T05:53:42.910Z,66.18
2018-03-14T05:56:11.569Z,64.34
2018-03-14T05:58:40.358Z,64.51
2018-03-14T06:01:09.191Z,63.67
2018-03-14T06:03:37.904Z,62.68
2018-03-14T06:06:06.523Z,62.03
2018-03-14T06:08:35.072Z,60.70
2018-03-14T06:11:03.690Z,60.25
2018-03-14T06:13:32.396Z,58.02
2018-03-14T06:16:01.315Z,54.02
2018-03-14T06:18:29.956Z,52.93
2018-03-14T06:20:59.157Z,51.91
2018-03-14T06:23:27.768Z,49.28
2018-03-14T06:25:56.410Z,49.08
2018-03-14T06:28:24.975Z,51.05
2018-03-14T06:30:53.743Z,51.83
2018-03-14T06:33:22.345Z,51.75
2018-03-14T06:35:50.986Z,52.10
2018-03-14T06:38:19.608Z,52.26
2018-03-14T06:40:48.234Z,52.36
2018-03-14T06:43:16.844Z,53.02
2018-03-14T06:45:45.485Z,52.66
2018-03-14T06:48:14.028Z,51.40
2018-03-14T06:50:42.816Z,51.07
2018-03-14T06:53:11.408Z,51.00
2018-03-14T06:55:40.069Z,50.82
2018-03-14T06:58:09.685Z,51.06
2018-03-14T07:00:50.750Z,51.73
2018-03-14T07:03:31.113Z,52.28
2018-03-14T07:06:06.660Z,52.98
2018-03-14T07:08:35.480Z,52.81
2018-03-14T07:11:04.121Z,52.18
2018-03-14T07:13:32.748Z,53.08
2018-03-14T07:16:01.320Z,52.65
2018-03-14T07:18:29.926Z,52.20
2018-03-14T07:20:58.583Z,51.87
2018-03-14T07:23:27.319Z,51.13
2018-03-14T07:25:55.944Z,51.70
2018-03-14T07:28:24.507Z,51.72
2018-03-14T07:30:53.175Z,51.20
2018-03-14T07:33:23.099Z,50.70
2018-03-14T07:35:51.707Z,49.58
2018-03-14T07:38:20.350Z,49.53
2018-03-14T07:40:49.065Z,49.65
2018-03-14T07:43:17.668Z,48.71
2018-03-14T07:45:46.309Z,47.69
2018-03-14T07:48:15.111Z,45.15
2018-03-14T07:50:43.703Z,43.60
2018-03-14T07:53:13.331Z,40.91
2018-03-14T07:55:42.623Z,40.16
2018-03-14T07:58:11.224Z,38.73
2018-03-14T08:00:39.856Z,38.42
2018-03-14T08:03:08.666Z,39.27
2018-03-14T08:05:37.846Z,39.06
2018-03-14T08:08:06.811Z,40.62
2018-03-14T08:10:35.449Z,41.63
2018-03-14T08:13:04.050Z,37.81
2018-03-14T08:15:32.644Z,39.25
2018-03-14T08:18:01.309Z,39.89
2018-03-14T08:20:30.028Z,36.72
2018-03-14T08:23:01.805Z,39.57
2018-03-14T08:25:30.515Z,35.79
2018-03-14T08:27:59.134Z,35.70
2018-03-14T08:30:27.831Z,34.86
2018-03-14T08:32:56.457Z,35.77
2018-03-14T08:35:25.072Z,36.64
2018-03-14T08:37:53.707Z,36.41
2018-03-14T08:40:22.410Z,38.00
2018-03-14T08:42:51.782Z,38.60
2018-03-14T08:45:20.550Z,37.89
2018-03-14T08:47:49.121Z,37.79
2018-03-14T08:50:17.705Z,38.15
2018-03-14T08:52:46.378Z,38.84
2018-03-14T08:55:14.966Z,38.95
2018-03-14T08:57:43.622Z,39.19
2018-03-14T09:00:12.192Z,39.82
2018-03-14T09:02:40.804Z,40.00
2018-03-14T09:05:09.520Z,40.23
2018-03-14T09:07:38.152Z,40.93
2018-03-14T09:10:06.782Z,39.14
2018-03-14T09:12:35.536Z,39.11
2018-03-14T09:15:04.216Z,37.12
2018-03-14T09:17:32.827Z,36.40
2018-03-14T09:20:01.405Z,37.17
2018-03-14T09:22:30.079Z,37.44
2018-03-14T09:24:58.670Z,38.79
2018-03-14T09:27:27.343Z,37.69
2018-03-14T09:29:55.992Z,38.51
2018-03-14T09:32:24.659Z,38.68
2018-03-14T09:34:53.485Z,36.01
2018-03-14T09:37:22.101Z,37.26
2018-03-14T09:39:50.824Z,37.98
2018-03-14T09:42:19.548Z,37.26
2018-03-14T09:44:48.172Z,36.26
2018-03-14T09:47:24.797Z,38.06
2018-03-14T09:49:59.514Z,38.42
2018-03-14T09:52:28.239Z,38.13
2018-03-14T09:54:56.935Z,38.14
2018-03-14T09:57:28.007Z,37.22
2018-03-14T09:59:57.458Z,38.54
2018-03-14T10:02:27.453Z,38.04
2018-03-14T10:04:56.452Z,38.45
2018-03-14T10:07:25.696Z,37.65
2018-03-14T10:09:54.355Z,38.71
2018-03-14T10:12:23.078Z,36.70
2018-03-14T10:14:51.801Z,36.58
2018-03-14T10:17:20.519Z,37.18
2018-03-14T10:19:49.441Z,37.54
2018-03-14T10:22:18.052Z,35.36
2018-03-14T10:24:47.298Z,34.10
2018-03-14T10:27:16.147Z,33.18
2018-03-14T10:29:44.905Z,34.20
2018-03-14T10:32:13.552Z,33.94
2018-03-14T10:34:42.876Z,31.46
2018-03-14T10:37:13.406Z,32.18
2018-03-14T10:39:42.045Z,30.68
2018-03-14T10:42:11.525Z,30.73
2018-03-14T10:44:40.248Z,31.86
2018-03-14T10:47:09.076Z,32.68
2018-03-14T10:49:37.703Z,30.92
2018-03-14T10:52:06.359Z,31.21
2018-03-14T10:54:35.707Z,31.54
2018-03-14T10:57:04.345Z,31.37
2018-03-14T10:59:33.830Z,31.44
2018-03-14T11:02:11.270Z,31.48
2018-03-14T11:04:43.271Z,34.04
2018-03-14T11:07:11.932Z,34.70
2018-03-14T11:09:40.596Z,34.88
2018-03-14T11:12:09.294Z,35.82
2018-03-14T11:14:37.950Z,35.13
2018-03-14T11:17:06.652Z,35.22
2018-03-14T11:19:35.752Z,34.27
2018-03-14T11:22:07.499Z,34.64
2018-03-14T11:24:36.168Z,35.35
2018-03-14T11:27:04.737Z,35.20
2018-03-14T11:29:33.650Z,36.35
2018-03-14T11:32:02.364Z,35.09
2018-03-14T11:34:31.043Z,34.61
2018-03-14T11:36:59.720Z,36.10
2018-03-14T11:39:28.330Z,37.18
2018-03-14T11:41:56.972Z,38.45
2018-03-14T11:44:25.557Z,39.08
2018-03-14T11:46:54.396Z,38.77
2018-03-14T11:49:23.144Z,38.30
2018-03-14T11:51:51.875Z,37.15
2018-03-14T11:54:20.491Z,37.11
2018-03-14T11:56:49.104Z,36.71
2018-03-14T11:59:18.106Z,37.27
2018-03-14T12:01:46.722Z,36.90
2018-03-14T12:04:16.462Z,37.44
2018-03-14T12:06:45.086Z,37.20
2018-03-14T12:09:13.830Z,36.65
2018-03-14T12:11:42.476Z,37.16
2018-03-14T12:14:11.067Z,37.20
2018-03-14T12:16:39.719Z,36.49
2018-03-14T12:19:08.347Z,36.75
2018-03-14T12:21:37.458Z,37.21
2018-03-14T12:24:06.143Z,38.38
2018-03-14T12:26:35.853Z,37.39
2018-03-14T12:29:05.632Z,37.28
2018-03-14T12:31:34.299Z,37.55
2018-03-14T12:34:03.434Z,37.58
2018-03-14T12:36:32.055Z,37.51
2018-03-14T12:39:01.302Z,36.73
2018-03-14T12:41:30.101Z,36.28
2018-03-14T12:43:59.892Z,36.62
2018-03-14T12:46:28.497Z,36.18
2018-03-14T12:48:57.262Z,36.77
2018-03-14T12:51:25.815Z,37.30
2018-03-14T12:53:54.609Z,37.25
2018-03-14T12:56:23.209Z,39.57
2018-03-14T12:58:51.962Z,37.55
2018-03-14T13:01:21.495Z,36.60
2018-03-14T13:03:50.085Z,37.15
2018-03-14T13:06:18.818Z,38.28
2018-03-14T13:08:47.606Z,39.27
2018-03-14T13:11:16.226Z,39.39
2018-03-14T13:13:45.581Z,39.83
2018-03-14T13:16:14.144Z,40.45
2018-03-14T13:18:43.254Z,40.78
2018-03-14T13:21:18.200Z,41.43
2018-03-14T13:23:47.720Z,40.53
2018-03-14T13:26:16.541Z,39.65
2018-03-14T13:28:45.703Z,41.63
2018-03-14T13:31:15.534Z,40.23
2018-03-14T13:33:46.218Z,40.29
2018-03-14T13:36:17.159Z,39.99
2018-03-14T13:38:47.207Z,43.11
2018-03-14T13:41:19.492Z,41.93
2018-03-14T13:43:48.230Z,40.67
2018-03-14T13:46:24.577Z,42.74
2018-03-14T13:48:53.625Z,42.23
2018-03-14T13:51:22.349Z,40.47
2018-03-14T13:56:31.852Z,37.28
2018-03-14T13:59:01.309Z,39.15
2018-03-14T14:01:46.695Z,37.21
2018-03-14T14:04:15.425Z,39.23
2018-03-14T14:06:48.915Z,39.59
2018-03-14T14:09:32.093Z,38.50
2018-03-14T14:14:34.572Z,39.58
2018-03-14T14:17:03.362Z,38.87
2018-03-14T14:19:31.964Z,40.68
2018-03-14T14:22:00.504Z,40.65
2018-03-14T14:24:29.276Z,42.35
2018-03-14T14:26:58.302Z,39.35
2018-03-14T14:32:00.263Z,37.64
2018-03-14T14:34:28.876Z,38.65
2018-03-14T14:36:58.606Z,37.06
2018-03-14T14:39:27.244Z,37.08
2018-03-14T14:41:56.863Z,35.20
2018-03-14T14:44:25.571Z,35.40
2018-03-14T14:46:54.400Z,35.27
2018-03-14T14:49:23.116Z,35.63
2018-03-14T14:51:51.960Z,35.23
2018-03-14T14:54:22.066Z,33.76
2018-03-14T14:56:50.789Z,34.42
2018-03-14T14:59:19.417Z,33.86
2018-03-14T15:01:48.045Z,32.94
2018-03-14T15:04:16.890Z,32.46
2018-03-14T15:06:45.695Z,32.25
2018-03-14T15:09:14.294Z,32.98
2018-03-14T15:11:42.927Z,33.63
2018-03-14T15:14:11.548Z,33.34
2018-03-14T15:16:40.163Z,33.26
2018-03-14T15:19:08.883Z,33.07
2018-03-14T15:21:37.605Z,34.52
2018-03-14T15:24:06.246Z,34.17
2018-03-14T15:26:35.652Z,34.84
2018-03-14T15:29:04.520Z,35.30
2018-03-14T15:31:34.296Z,36.77
2018-03-14T15:34:03.010Z,37.23
2018-03-14T15:36:40.365Z,38.13
2018-03-14T15:39:09.195Z,38.57
2018-03-14T15:41:37.830Z,39.54
2018-03-14T15:44:06.433Z,39.21
2018-03-14T15:46:34.974Z,40.41
2018-03-14T15:49:05.352Z,40.02
2018-03-14T15:51:34.243Z,40.36
2018-03-14T15:54:02.801Z,38.88
2018-03-14T16:29:02.298Z,45.75
2018-03-14T16:31:30.923Z,46.23
2018-03-14T16:33:59.742Z,46.25
2018-03-14T16:36:28.374Z,45.71
2018-03-14T16:38:57.152Z,46.18
2018-03-14T16:41:25.807Z,46.77
2018-03-14T16:43:54.429Z,47.53
2018-03-14T16:46:23.249Z,47.13
2018-03-14T16:48:52.575Z,46.91
2018-03-14T16:51:21.301Z,47.86
2018-03-14T16:53:50.019Z,47.60
2018-03-14T16:56:18.653Z,47.45
2018-03-14T16:58:47.247Z,47.45
2018-03-14T17:01:15.982Z,47.62
2018-03-14T17:03:44.665Z,47.84
2018-03-14T17:06:13.448Z,48.06
2018-03-14T17:08:42.151Z,48.32
2018-03-14T17:11:10.872Z,48.32
2018-03-14T17:13:39.596Z,48.27
2018-03-14T17:16:08.921Z,48.59
2018-03-14T17:18:37.711Z,48.56
2018-03-14T17:21:06.353Z,48.82
2018-03-14T17:23:34.964Z,48.93
2018-03-14T17:26:03.709Z,48.98
2018-03-14T17:28:32.829Z,49.01
2018-03-14T17:31:01.475Z,49.49
2018-03-14T17:33:30.182Z,49.53
2018-03-14T17:35:58.898Z,49.43
2018-03-14T17:38:27.600Z,49.81
2018-03-14T17:40:56.261Z,50.13
2018-03-14T17:43:24.958Z,49.69
2018-03-14T17:45:53.542Z,49.47
2018-03-14T17:48:22.200Z,48.50
2018-03-14T17:50:50.921Z,48.71
2018-03-14T17:53:19.479Z,48.96
2018-03-14T17:55:48.091Z,51.02
2018-03-14T17:58:16.862Z,50.97
2018-03-14T18:00:46.312Z,49.84
2018-03-14T18:03:14.932Z,50.69
2018-03-14T18:05:43.734Z,51.24
2018-03-14T18:08:12.404Z,52.17
2018-03-14T18:10:41.114Z,53.03
2018-03-14T18:13:09.724Z,52.63
2018-03-14T18:15:38.451Z,52.71
2018-03-14T18:18:07.167Z,53.17
2018-03-14T18:20:35.803Z,52.98
2018-03-14T18:23:04.530Z,52.28
2018-03-14T18:25:33.228Z,51.87
2018-03-14T18:28:01.960Z,52.33
2018-03-14T18:30:30.574Z,52.64
2018-03-14T18:32:59.807Z,52.71
2018-03-14T18:35:28.429Z,52.35
2018-03-14T18:37:56.976Z,52.72
2018-03-14T18:40:25.742Z,52.17
2018-03-14T18:42:54.383Z,52.55
2018-03-14T18:45:22.954Z,53.19
2018-03-14T18:47:51.643Z,53.36
2018-03-14T18:50:20.347Z,52.66
2018-03-14T18:52:48.986Z,53.15
2018-03-14T18:55:17.646Z,53.48
2018-03-14T18:57:46.230Z,53.75
2018-03-14T19:00:14.938Z,53.49
2018-03-14T19:02:43.656Z,54.05
2018-03-14T19:05:12.376Z,53.93
2018-03-14T19:07:41.004Z,54.12
2018-03-14T19:10:09.889Z,54.00
2018-03-14T19:12:38.562Z,53.30
2018-03-14T19:15:07.283Z,53.93
2018-03-14T19:17:35.977Z,53.55
2018-03-14T19:20:04.560Z,54.60
2018-03-14T19:22:33.330Z,54.02
2018-03-14T19:25:02.058Z,54.38
2018-03-14T19:27:30.774Z,54.02
2018-03-14T19:29:59.497Z,52.71
2018-03-14T19:32:28.125Z,52.38
2018-03-14T19:34:56.695Z,51.90
2018-03-14T19:37:25.306Z,52.50
2018-03-14T19:39:53.894Z,53.03
2018-03-14T19:42:22.472Z,53.10
2018-03-14T19:44:51.129Z,53.29
2018-03-14T19:47:19.850Z,51.66
2018-03-14T19:49:48.417Z,52.96
2018-03-14T19:52:17.290Z,52.94
2018-03-14T19:54:46.012Z,54.43
2018-03-14T19:57:14.642Z,54.61
2018-03-14T19:59:43.354Z,58.76
2018-03-14T20:02:12.085Z,58.45
2018-03-14T20:04:40.787Z,58.62
2018-03-14T20:07:09.391Z,63.53
2018-03-14T20:09:37.940Z,64.95
2018-03-14T20:12:06.524Z,67.59
2018-03-14T20:14:35.196Z,71.73
2018-03-14T20:17:03.867Z,74.47
2018-03-14T20:19:32.627Z,74.23
2018-03-14T20:22:01.255Z,75.77
2018-03-14T20:24:29.860Z,75.96
2018-03-14T20:26:58.559Z,76.74
2018-03-14T20:29:27.101Z,74.95
2018-03-14T20:31:55.990Z,74.27
2018-03-14T20:34:24.537Z,75.08
2018-03-14T20:36:53.194Z,73.44
2018-03-14T20:39:21.762Z,73.31
2018-03-14T20:41:50.312Z,74.17
2018-03-14T20:44:18.938Z,71.85
2018-03-14T20:46:47.566Z,71.37
2018-03-14T20:49:16.897Z,73.82
2018-03-14T20:51:46.114Z,72.10
2018-03-14T20:54:14.701Z,72.52
2018-03-14T20:56:43.249Z,73.93
2018-03-14T20:59:11.831Z,74.30
2018-03-14T21:01:40.412Z,70.26
2018-03-14T21:04:09.003Z,70.78
2018-03-14T21:06:37.595Z,69.97
2018-03-14T21:09:06.731Z,70.90
2018-03-14T21:11:35.335Z,72.76
2018-03-14T21:14:03.893Z,72.40
2018-03-14T21:16:32.634Z,70.70
2018-03-14T21:19:01.214Z,71.57
2018-03-14T21:21:29.819Z,73.17
2018-03-14T21:23:58.392Z,73.49
2018-03-14T21:26:26.990Z,73.45
2018-03-14T21:28:55.624Z,70.60
2018-03-14T21:31:24.286Z,70.77
2018-03-14T21:33:52.815Z,71.19
2018-03-14T21:36:21.503Z,71.21
2018-03-14T21:38:50.089Z,71.04
2018-03-14T21:41:19.856Z,70.59
2018-03-14T21:43:48.491Z,71.79
2018-03-14T21:46:17.089Z,71.86
2018-03-14T21:48:45.735Z,71.38
2018-03-14T21:51:14.381Z,71.79
2018-03-14T21:53:42.954Z,71.99
2018-03-14T21:56:11.680Z,72.46
2018-03-14T21:58:40.400Z,72.69
2018-03-14T22:01:09.070Z,72.27
2018-03-14T22:03:37.844Z,72.54
2018-03-14T22:06:06.571Z,72.75
2018-03-14T22:08:35.080Z,73.98
2018-03-14T22:11:03.675Z,73.42
2018-03-14T22:13:32.904Z,74.29
2018-03-14T22:16:01.654Z,74.72
2018-03-14T22:18:30.269Z,75.59
2018-03-14T22:20:58.913Z,75.50
2018-03-14T22:23:27.448Z,75.79
2018-03-14T22:25:56.027Z,75.16
2018-03-14T22:28:24.570Z,74.68
2018-03-14T22:30:53.147Z,74.82
2018-03-14T22:33:21.690Z,75.63
2018-03-14T22:35:50.428Z,75.68
2018-03-14T22:38:19.000Z,76.23
2018-03-14T22:40:47.565Z,76.19
2018-03-14T22:43:16.150Z,75.68
2018-03-14T22:45:44.766Z,75.93
2018-03-14T22:48:13.532Z,75.57
2018-03-14T22:50:42.275Z,75.24
2018-03-14T22:53:11.081Z,74.92
2018-03-14T22:55:39.623Z,74.07
2018-03-14T22:58:08.220Z,73.92
2018-03-14T23:00:37.558Z,74.17
2018-03-14T23:03:06.266Z,74.12
2018-03-14T23:05:34.890Z,74.40
2018-03-14T23:08:03.476Z,74.71
2018-03-14T23:10:32.211Z,76.31
2018-03-14T23:13:00.757Z,76.63
2018-03-14T23:15:31.388Z,75.68
2018-03-14T23:18:00.106Z,75.24
2018-03-14T23:20:28.712Z,76.43
2018-03-14T23:22:57.447Z,77.09
2018-03-14T23:25:26.050Z,77.96
2018-03-14T23:27:54.685Z,78.77
2018-03-14T23:30:23.421Z,79.08
2018-03-14T23:32:52.039Z,79.47
2018-03-14T23:35:20.882Z,79.03
2018-03-14T23:37:49.440Z,78.16
2018-03-14T23:40:18.207Z,78.10
2018-03-14T23:42:47.557Z,77.10
2018-03-14T23:45:16.159Z,76.47
2018-03-14T23:47:44.868Z,76.28
2018-03-14T23:50:13.462Z,76.54
2018-03-14T23:52:42.109Z,76.82
2018-03-14T23:55:10.831Z,77.08
2018-03-14T23:57:39.431Z,76.94
